Time;durP1;ratioP1;P1;durP2;ratioP2;P2;SDS_P1;SDS_P2;PMS_P1;PMS_P2;Temp;Humidity;BMP_temperature;BMP_pressure;BME280_temperature;BME280_humidity;BME280_pressure;Samples;Min_cycle;Max_cycle;Signal;HPM_P1;HPM_P2
2023/06/30 00:43:13;;;;;;;6.10;3.00;;;18.90;99.90;;;;;;5068650;28;20442;-73
2023/06/30 00:45:39;;;;;;;7.30;3.13;;;18.90;99.90;;;;;;5062962;28;20870;-73
2023/06/30 00:48:05;;;;;;;3.57;2.00;;;18.80;99.90;;;;;;5053991;28;20460;-73
2023/06/30 00:50:30;;;;;;;3.73;2.63;;;18.80;99.90;;;;;;5072387;28;20177;-74
2023/06/30 00:52:57;;;;;;;5.30;2.43;;;18.80;99.90;;;;;;5070947;28;20200;-73
2023/06/30 00:55:26;;;;;;;7.73;3.63;;;18.70;99.90;;;;;;5062845;28;20185;-74
2023/06/30 00:57:51;;;;;;;4.37;2.83;;;18.60;99.90;;;;;;5067570;28;20458;-73
2023/06/30 01:00:18;;;;;;;7.73;3.50;;;18.70;99.90;;;;;;5062396;28;20452;-73
2023/06/30 01:03:01;;;;;;;5.90;2.83;;;18.60;99.90;;;;;;5056488;28;20631;-73
2023/06/30 01:05:36;;;;;;;7.57;2.93;;;18.50;99.90;;;;;;5052371;28;20431;-73
2023/06/30 01:08:12;;;;;;;4.47;2.40;;;18.50;99.90;;;;;;5053231;28;20600;-74
2023/06/30 01:10:39;;;;;;;3.60;2.50;;;18.50;99.90;;;;;;5065597;28;20454;-74
2023/06/30 01:13:06;;;;;;;5.73;2.50;;;18.40;99.90;;;;;;5067331;28;20535;-73
2023/06/30 01:15:33;;;;;;;10.27;2.67;;;18.40;99.90;;;;;;5065986;28;20518;-73
2023/06/30 01:18:00;;;;;;;3.63;2.37;;;18.40;99.90;;;;;;5070749;28;20465;-74
2023/06/30 01:20:30;;;;;;;7.37;2.50;;;18.40;99.90;;;;;;5057951;28;20420;-74
2023/06/30 01:22:56;;;;;;;4.47;2.30;;;18.40;99.90;;;;;;5071056;28;21306;-73
2023/06/30 01:25:25;;;;;;;9.33;2.80;;;18.30;99.90;;;;;;5068596;28;20427;-73
2023/06/30 01:27:51;;;;;;;4.20;2.40;;;18.30;99.90;;;;;;5060670;28;20197;-73
2023/06/30 01:30:18;;;;;;;2.97;1.80;;;18.30;99.90;;;;;;5063543;28;20431;-73
2023/06/30 01:32:45;;;;;;;6.80;2.27;;;18.30;99.90;;;;;;5051904;28;20548;-73
2023/06/30 01:35:11;;;;;;;4.17;2.37;;;18.20;99.90;;;;;;5063297;28;20422;-73
2023/06/30 01:37:37;;;;;;;4.37;2.73;;;18.30;99.90;;;;;;5061218;28;20766;-73
2023/06/30 01:40:04;;;;;;;4.40;2.50;;;18.20;99.90;;;;;;5057416;28;20419;-74
2023/06/30 01:42:30;;;;;;;4.43;3.00;;;18.20;99.90;;;;;;5059878;28;20185;-74
2023/06/30 01:44:56;;;;;;;4.67;2.70;;;18.10;99.90;;;;;;5069637;28;20462;-73
2023/06/30 01:47:22;;;;;;;5.37;2.30;;;18.10;99.90;;;;;;5070771;28;20490;-73
2023/06/30 01:49:48;;;;;;;3.70;2.43;;;18.00;99.90;;;;;;5070549;28;20188;-74
2023/06/30 01:52:13;;;;;;;4.60;2.47;;;18.00;99.90;;;;;;5070251;28;20200;-73
2023/06/30 01:54:39;;;;;;;4.30;2.70;;;18.00;99.90;;;;;;5057457;28;20411;-74
2023/06/30 01:57:05;;;;;;;7.20;3.00;;;18.00;99.90;;;;;;5070314;28;20188;-74
2023/06/30 01:59:30;;;;;;;5.17;2.50;;;18.00;99.90;;;;;;5070685;28;20239;-74
2023/06/30 02:01:56;;;;;;;5.97;2.60;;;18.00;99.90;;;;;;5057524;28;20184;-74
2023/06/30 02:04:21;;;;;;;5.47;3.20;;;17.90;99.90;;;;;;5050206;28;20203;-74
2023/06/30 02:06:47;;;;;;;6.20;2.47;;;17.90;99.90;;;;;;5045645;28;20769;-74
2023/06/30 02:09:13;;;;;;;8.03;3.00;;;17.90;99.90;;;;;;5060998;28;20741;-73
2023/06/30 02:11:39;;;;;;;3.37;2.20;;;17.90;99.90;;;;;;5069946;28;20188;-74
2023/06/30 02:14:05;;;;;;;4.57;2.63;;;17.90;99.90;;;;;;5057770;28;20185;-74
2023/06/30 02:16:31;;;;;;;5.83;2.50;;;17.90;99.90;;;;;;5056595;28;20416;-73
2023/06/30 02:18:56;;;;;;;3.23;1.90;;;17.80;99.90;;;;;;5048559;28;20194;-74
2023/06/30 02:21:22;;;;;;;3.60;2.07;;;17.80;99.90;;;;;;5039291;28;20216;-74
2023/06/30 02:23:49;;;;;;;3.87;2.37;;;17.70;99.90;;;;;;5050128;28;20185;-73
2023/06/30 02:26:15;;;;;;;3.13;2.10;;;17.70;99.90;;;;;;5050765;28;20422;-74
2023/06/30 02:28:40;;;;;;;4.93;2.50;;;17.60;99.90;;;;;;5066896;28;20545;-73
2023/06/30 02:31:06;;;;;;;4.57;2.70;;;17.60;99.90;;;;;;5059925;28;20996;-74
2023/06/30 02:33:31;;;;;;;3.63;2.60;;;17.60;99.90;;;;;;5054772;28;20187;-74
2023/06/30 02:35:57;;;;;;;4.60;2.40;;;17.60;99.90;;;;;;5070525;28;20178;-74
2023/06/30 02:38:23;;;;;;;4.23;2.70;;;17.60;99.90;;;;;;5070191;28;20250;-74
2023/06/30 02:40:48;;;;;;;4.03;2.40;;;17.60;99.90;;;;;;5064701;28;20273;-74
2023/06/30 02:43:14;;;;;;;6.43;2.73;;;17.60;99.90;;;;;;5064256;28;20614;-74
2023/06/30 02:45:40;;;;;;;5.73;2.43;;;17.60;99.90;;;;;;5063826;28;20181;-74
2023/06/30 02:48:05;;;;;;;4.60;2.70;;;17.70;99.90;;;;;;5068972;28;20250;-74
2023/06/30 02:50:31;;;;;;;3.93;2.60;;;17.70;99.90;;;;;;5034405;28;20212;-74
2023/06/30 02:53:00;;;;;;;5.17;2.83;;;17.70;99.90;;;;;;5065313;28;20285;-74
2023/06/30 02:55:25;;;;;;;5.93;2.83;;;17.80;99.90;;;;;;5074991;28;20887;-74
2023/06/30 02:57:51;;;;;;;8.37;2.80;;;17.80;99.90;;;;;;5073778;28;20477;-74
2023/06/30 03:00:17;;;;;;;4.10;2.80;;;17.80;99.90;;;;;;5074220;28;20189;-74
2023/06/30 03:02:43;;;;;;;4.83;2.30;;;17.80;99.90;;;;;;5072735;28;20189;-74
2023/06/30 03:05:09;;;;;;;3.97;2.73;;;17.90;99.90;;;;;;5073773;28;20577;-74
2023/06/30 03:07:35;;;;;;;4.43;3.00;;;17.80;99.90;;;;;;5044653;28;20217;-74
2023/06/30 03:10:01;;;;;;;3.40;2.50;;;17.80;99.90;;;;;;5073922;28;20484;-74
2023/06/30 03:12:27;;;;;;;4.80;2.33;;;17.80;99.90;;;;;;5072550;28;20415;-73
2023/06/30 03:14:52;;;;;;;10.77;3.10;;;17.80;99.90;;;;;;5055304;28;20416;-74
2023/06/30 03:17:18;;;;;;;7.30;3.40;;;17.70;99.90;;;;;;5068181;28;20681;-73
2023/06/30 03:19:44;;;;;;;3.90;2.53;;;17.70;99.90;;;;;;5063053;28;20188;-74
2023/06/30 03:22:09;;;;;;;11.23;3.53;;;17.70;99.90;;;;;;5059127;28;20184;-73
2023/06/30 03:24:35;;;;;;;4.73;3.03;;;17.70;99.90;;;;;;5074173;28;20181;-73
2023/06/30 03:27:00;;;;;;;4.40;2.23;;;17.60;99.90;;;;;;5070588;28;20240;-74
2023/06/30 03:29:26;;;;;;;6.73;2.77;;;17.60;99.90;;;;;;5045005;28;20523;-74
2023/06/30 03:31:52;;;;;;;4.73;2.50;;;17.60;99.90;;;;;;5055749;28;20193;-74
2023/06/30 03:34:18;;;;;;;6.63;3.60;;;17.60;99.90;;;;;;5059551;28;20770;-74
2023/06/30 03:36:43;;;;;;;7.50;2.60;;;17.50;99.90;;;;;;5066193;28;20188;-74
2023/06/30 03:39:09;;;;;;;4.17;2.27;;;17.50;99.90;;;;;;5075793;28;20212;-74
2023/06/30 03:41:35;;;;;;;4.03;2.43;;;17.40;99.90;;;;;;5074109;28;20230;-74
2023/06/30 03:44:00;;;;;;;6.30;2.20;;;17.40;99.90;;;;;;5070035;28;20196;-73
2023/06/30 03:46:26;;;;;;;8.90;2.83;;;17.40;99.90;;;;;;5074309;28;20275;-74
2023/06/30 03:48:51;;;;;;;6.00;2.60;;;17.50;99.90;;;;;;5073862;28;20209;-73
2023/06/30 03:51:17;;;;;;;7.37;2.93;;;17.60;99.90;;;;;;5069467;28;20193;-74
2023/06/30 03:53:43;;;;;;;7.30;2.63;;;17.70;99.90;;;;;;5051300;28;20220;-74
2023/06/30 03:56:09;;;;;;;3.50;2.30;;;17.70;99.90;;;;;;5073045;28;20361;-74
2023/06/30 03:58:34;;;;;;;5.00;2.97;;;17.80;99.90;;;;;;5072721;28;20192;-74
2023/06/30 04:01:00;;;;;;;9.23;2.77;;;17.80;99.90;;;;;;5070024;28;20427;-74
2023/06/30 04:03:26;;;;;;;3.87;2.63;;;17.80;99.90;;;;;;5043681;28;20190;-74
2023/06/30 04:05:52;;;;;;;4.43;2.43;;;17.90;99.90;;;;;;5059464;28;20181;-74
2023/06/30 04:08:17;;;;;;;6.37;3.33;;;17.90;99.90;;;;;;5057345;28;20658;-73
2023/06/30 04:10:43;;;;;;;3.40;2.40;;;18.00;99.90;;;;;;5067760;28;20430;-73
2023/06/30 04:13:09;;;;;;;4.30;3.23;;;18.00;99.90;;;;;;5067819;28;20186;-74
2023/06/30 04:15:35;;;;;;;4.43;3.07;;;18.10;99.90;;;;;;5068371;28;20957;-73
2023/06/30 04:18:01;;;;;;;3.40;2.30;;;18.20;99.90;;;;;;5064714;28;20439;-74
2023/06/30 04:20:27;;;;;;;6.07;2.87;;;18.20;99.90;;;;;;5068155;28;20231;-73
2023/06/30 04:22:53;;;;;;;6.67;3.37;;;18.30;99.90;;;;;;5071850;28;20422;-74
2023/06/30 04:25:18;;;;;;;6.10;3.00;;;18.40;99.90;;;;;;5072552;28;20276;-74
2023/06/30 04:27:44;;;;;;;3.57;2.37;;;18.40;99.90;;;;;;5071985;28;20569;-74
2023/06/30 04:30:10;;;;;;;6.43;2.67;;;18.50;99.90;;;;;;5066100;28;20712;-73
2023/06/30 04:32:36;;;;;;;6.97;2.60;;;18.60;99.90;;;;;;5054882;28;20681;-74
2023/06/30 04:35:01;;;;;;;5.33;2.70;;;18.70;99.90;;;;;;5049764;28;20424;-73
2023/06/30 04:37:30;;;;;;;6.03;3.30;;;18.60;99.90;;;;;;5064034;28;20259;-74
2023/06/30 04:39:58;;;;;;;5.43;2.50;;;18.60;99.90;;;;;;5071937;28;20200;-73
2023/06/30 04:42:27;;;;;;;4.80;2.70;;;18.60;99.90;;;;;;5071289;28;20427;-73
2023/06/30 04:44:53;;;;;;;4.90;2.93;;;18.40;99.90;;;;;;5069391;28;20423;-73
2023/06/30 04:47:18;;;;;;;5.13;2.87;;;18.40;99.90;;;;;;5071881;28;20470;-73
2023/06/30 04:49:45;;;;;;;7.97;4.33;;;18.30;99.90;;;;;;5071548;28;20216;-73
2023/06/30 04:52:11;;;;;;;5.70;3.90;;;18.20;99.90;;;;;;5070387;28;20185;-73
2023/06/30 04:54:36;;;;;;;6.20;3.03;;;18.10;99.90;;;;;;5071633;28;20534;-73
2023/06/30 04:57:02;;;;;;;5.30;3.30;;;18.00;99.90;;;;;;5071488;28;20420;-73
2023/06/30 04:59:27;;;;;;;7.90;3.13;;;18.00;99.90;;;;;;5065172;28;20202;-73
2023/06/30 05:01:53;;;;;;;5.80;3.53;;;18.00;99.90;;;;;;5051227;28;20615;-73
2023/06/30 05:04:19;;;;;;;8.00;4.27;;;18.00;99.90;;;;;;5042493;28;20181;-73
2023/06/30 05:06:45;;;;;;;34.33;4.40;;;18.00;99.90;;;;;;5046851;28;20290;-73
2023/06/30 05:09:11;;;;;;;7.17;3.73;;;18.00;99.90;;;;;;5061251;28;20213;-73
2023/06/30 05:11:36;;;;;;;11.60;4.03;;;17.90;99.90;;;;;;5071134;28;20498;-72
2023/06/30 05:14:02;;;;;;;8.47;4.37;;;17.80;99.90;;;;;;5061193;28;20866;-72
2023/06/30 05:16:27;;;;;;;10.03;4.83;;;17.70;99.90;;;;;;5071695;28;20180;-72
2023/06/30 05:18:53;;;;;;;8.70;4.70;;;17.60;99.90;;;;;;5058370;28;20178;-72
2023/06/30 05:21:19;;;;;;;10.97;5.10;;;17.60;99.90;;;;;;5070464;28;20180;-72
2023/06/30 05:23:44;;;;;;;13.93;5.30;;;17.40;99.90;;;;;;5044464;28;20194;-72
2023/06/30 05:26:10;;;;;;;9.17;4.93;;;17.30;99.90;;;;;;5071258;28;20193;-72
2023/06/30 05:28:36;;;;;;;17.53;5.40;;;17.30;99.90;;;;;;5070989;28;20209;-72
2023/06/30 05:31:02;;;;;;;16.07;5.00;;;17.20;99.90;;;;;;5049314;28;20458;-72
2023/06/30 05:33:28;;;;;;;10.47;5.60;;;17.10;99.90;;;;;;5052230;28;20211;-71
2023/06/30 05:35:53;;;;;;;9.03;5.20;;;16.90;99.90;;;;;;5067588;28;20430;-72
2023/06/30 05:38:19;;;;;;;9.67;5.57;;;16.90;99.90;;;;;;5062664;28;20243;-71
2023/06/30 05:40:45;;;;;;;13.43;6.43;;;16.90;99.90;;;;;;5047592;28;20185;-71
2023/06/30 05:43:10;;;;;;;10.17;6.30;;;16.90;99.90;;;;;;5065671;28;20180;-71
2023/06/30 05:45:37;;;;;;;10.93;6.20;;;16.80;99.90;;;;;;5059220;28;20268;-71
2023/06/30 05:48:02;;;;;;;14.13;6.17;;;16.80;99.90;;;;;;5070948;28;20284;-71
2023/06/30 05:50:28;;;;;;;11.40;6.40;;;16.90;99.90;;;;;;5071036;28;20506;-71
2023/06/30 05:52:54;;;;;;;14.30;6.67;;;16.90;99.90;;;;;;5057947;28;20529;-71
2023/06/30 05:55:20;;;;;;;19.00;7.80;;;16.90;99.90;;;;;;5071446;28;20442;-71
2023/06/30 05:57:46;;;;;;;10.17;5.77;;;16.90;99.90;;;;;;5070674;28;20899;-72
2023/06/30 06:00:12;;;;;;;12.63;5.90;;;16.90;99.90;;;;;;5059542;28;20292;-72
2023/06/30 06:02:38;;;;;;;19.13;6.53;;;16.90;99.90;;;;;;5056909;28;20544;-72
2023/06/30 06:05:04;;;;;;;13.63;6.53;;;16.90;99.90;;;;;;5059146;28;20472;-72
2023/06/30 06:07:30;;;;;;;16.50;6.10;;;16.80;99.90;;;;;;5042143;28;20213;-72
2023/06/30 06:09:55;;;;;;;11.87;7.37;;;16.80;99.90;;;;;;5060300;28;20412;-72
2023/06/30 06:12:21;;;;;;;11.30;6.70;;;16.90;99.90;;;;;;5071386;28;20181;-73
2023/06/30 06:14:46;;;;;;;17.90;7.60;;;16.90;99.90;;;;;;5063955;28;20178;-73
2023/06/30 06:17:12;;;;;;;15.83;6.63;;;17.00;99.90;;;;;;5066521;28;20820;-73
2023/06/30 06:19:37;;;;;;;19.20;7.00;;;17.00;99.90;;;;;;5063928;28;20182;-74
2023/06/30 06:22:03;;;;;;;12.57;6.17;;;17.10;99.90;;;;;;5038974;28;20265;-72
2023/06/30 06:24:29;;;;;;;14.60;7.03;;;17.10;99.90;;;;;;5064142;28;20181;-72
2023/06/30 06:26:54;;;;;;;14.80;6.23;;;17.20;99.90;;;;;;5037816;28;20202;-72
2023/06/30 06:29:22;;;;;;;13.50;6.90;;;17.10;99.90;;;;;;5031847;28;20644;-73
2023/06/30 06:31:51;;;;;;;10.90;6.20;;;17.20;99.90;;;;;;5051309;28;20181;-72
2023/06/30 06:34:18;;;;;;;11.80;6.10;;;17.30;99.90;;;;;;5044009;28;20425;-73
2023/06/30 06:36:44;;;;;;;12.60;5.80;;;17.30;99.90;;;;;;5034382;28;20429;-73
2023/06/30 06:39:10;;;;;;;14.17;6.50;;;17.40;99.90;;;;;;5039400;28;20412;-73
2023/06/30 06:41:36;;;;;;;12.80;6.00;;;17.50;99.90;;;;;;5051547;28;20462;-73
2023/06/30 06:44:02;;;;;;;17.40;8.60;;;17.70;99.90;;;;;;5051214;28;20834;-73
2023/06/30 06:46:28;;;;;;;23.70;7.70;;;17.80;99.90;;;;;;5038596;28;20631;-73
2023/06/30 06:48:54;;;;;;;13.27;7.13;;;17.80;99.90;;;;;;5044032;28;20206;-73
2023/06/30 06:51:21;;;;;;;12.53;7.37;;;17.80;99.90;;;;;;5031799;28;20170;-73
2023/06/30 06:53:46;;;;;;;10.60;6.03;;;17.70;99.90;;;;;;5040092;28;20408;-73
2023/06/30 06:56:12;;;;;;;13.30;5.80;;;17.60;99.90;;;;;;5037461;28;20528;-73
2023/06/30 06:58:38;;;;;;;21.90;7.57;;;17.60;99.90;;;;;;5032093;28;20183;-73
2023/06/30 07:01:04;;;;;;;12.90;6.83;;;17.60;99.90;;;;;;5031942;28;20174;-73
2023/06/30 07:03:30;;;;;;;10.40;6.40;;;17.50;99.90;;;;;;5031869;28;20466;-73
2023/06/30 07:05:57;;;;;;;13.07;7.07;;;17.70;99.90;;;;;;5031971;28;20473;-73
2023/06/30 07:08:24;;;;;;;19.10;6.70;;;17.70;99.90;;;;;;5050147;28;20467;-73
2023/06/30 07:10:50;;;;;;;15.90;7.67;;;17.70;99.90;;;;;;5051826;28;20440;-73
2023/06/30 07:13:18;;;;;;;20.43;7.23;;;17.70;99.90;;;;;;5051778;28;20416;-73
2023/06/30 07:15:50;;;;;;;11.50;6.50;;;17.80;99.90;;;;;;5050988;28;20425;-73
2023/06/30 07:18:17;;;;;;;13.40;6.40;;;17.70;99.90;;;;;;5046176;28;20419;-73
2023/06/30 07:20:52;;;;;;;13.30;6.97;;;17.70;99.90;;;;;;5051484;28;20853;-73
2023/06/30 07:23:18;;;;;;;10.57;6.80;;;17.90;99.90;;;;;;5047234;28;20437;-73
2023/06/30 07:25:44;;;;;;;11.63;6.37;;;17.80;99.90;;;;;;5074075;28;20415;-73
2023/06/30 07:28:09;;;;;;;12.40;6.30;;;17.80;99.90;;;;;;5075420;28;20566;-73
2023/06/30 07:30:36;;;;;;;10.90;6.60;;;17.80;99.90;;;;;;5037935;28;20945;-73
2023/06/30 07:33:02;;;;;;;11.17;6.17;;;17.90;99.90;;;;;;5047546;28;20177;-73
2023/06/30 07:35:28;;;;;;;22.33;6.00;;;18.00;99.90;;;;;;5041816;28;20416;-73
2023/06/30 07:37:54;;;;;;;14.43;6.27;;;18.00;99.90;;;;;;5055219;28;20818;-73
2023/06/30 07:40:19;;;;;;;13.40;6.40;;;18.00;99.90;;;;;;5054901;28;20588;-73
2023/06/30 07:42:45;;;;;;;16.77;7.33;;;18.10;99.90;;;;;;5054432;28;20189;-73
2023/06/30 07:45:12;;;;;;;13.00;6.83;;;18.10;99.90;;;;;;5049036;28;20285;-73
2023/06/30 07:47:41;;;;;;;14.00;7.23;;;18.10;99.90;;;;;;5047593;28;20205;-74
2023/06/30 07:50:12;;;;;;;12.63;6.30;;;18.10;99.90;;;;;;5041397;28;20748;-74
2023/06/30 07:52:41;;;;;;;12.17;6.33;;;18.10;99.90;;;;;;5041024;28;20732;-74
2023/06/30 07:55:07;;;;;;;22.77;8.03;;;18.20;99.90;;;;;;5054746;28;20409;-74
2023/06/30 07:57:32;;;;;;;16.30;6.77;;;18.20;99.90;;;;;;5040731;28;20527;-74
2023/06/30 07:59:58;;;;;;;14.40;5.60;;;18.30;99.90;;;;;;5046793;28;20229;-74
2023/06/30 08:02:24;;;;;;;14.43;6.33;;;18.30;99.90;;;;;;5034406;28;20561;-74
2023/06/30 08:04:50;;;;;;;16.13;6.60;;;18.30;99.90;;;;;;5046585;28;20186;-74
2023/06/30 08:07:16;;;;;;;14.47;6.90;;;18.30;99.90;;;;;;5062071;28;20207;-74
2023/06/30 08:09:41;;;;;;;17.43;6.37;;;18.30;99.90;;;;;;5054521;28;20389;-74
2023/06/30 08:12:08;;;;;;;14.83;8.07;;;18.30;99.90;;;;;;5040787;28;20273;-74
2023/06/30 08:14:33;;;;;;;16.17;6.87;;;18.30;99.90;;;;;;5067626;28;20529;-74
2023/06/30 08:16:59;;;;;;;17.70;8.00;;;18.30;99.90;;;;;;5041399;28;20417;-74
2023/06/30 08:19:25;;;;;;;13.90;6.67;;;18.30;99.90;;;;;;5054453;28;20474;-74
2023/06/30 08:21:50;;;;;;;18.80;7.60;;;18.20;99.90;;;;;;5041178;28;20190;-74
2023/06/30 08:24:16;;;;;;;11.30;7.37;;;18.20;99.90;;;;;;5047240;28;20277;-74
2023/06/30 08:26:41;;;;;;;11.80;6.77;;;18.20;99.90;;;;;;5061216;28;20568;-74
2023/06/30 08:29:07;;;;;;;17.47;7.83;;;18.20;99.90;;;;;;5054243;28;20193;-74
2023/06/30 08:31:33;;;;;;;12.73;7.50;;;18.10;99.90;;;;;;5054014;28;20196;-74
2023/06/30 08:33:59;;;;;;;15.33;6.70;;;18.10;99.90;;;;;;5054323;28;20608;-74
2023/06/30 08:36:25;;;;;;;14.63;7.80;;;18.10;99.90;;;;;;5066076;28;20510;-74
2023/06/30 08:38:50;;;;;;;16.17;8.47;;;18.00;99.90;;;;;;5054158;28;20244;-74
2023/06/30 08:41:16;;;;;;;14.77;7.90;;;18.00;99.90;;;;;;5039978;28;20567;-73
2023/06/30 08:43:42;;;;;;;12.00;6.93;;;17.90;99.90;;;;;;5050098;28;20196;-73
2023/06/30 08:46:10;;;;;;;14.00;7.40;;;17.80;99.90;;;;;;5048535;28;20416;-73
2023/06/30 08:48:36;;;;;;;12.10;7.63;;;17.70;99.90;;;;;;5060058;28;20449;-72
2023/06/30 08:51:03;;;;;;;15.50;7.10;;;17.70;99.90;;;;;;5031844;28;20492;-72
2023/06/30 08:53:30;;;;;;;12.63;5.67;;;17.70;99.90;;;;;;5032738;28;20952;-72
2023/06/30 08:55:58;;;;;;;10.30;6.07;;;17.60;99.90;;;;;;5045533;28;20755;-72
2023/06/30 08:58:28;;;;;;;10.60;5.90;;;17.60;99.90;;;;;;5058575;28;20696;-73
2023/06/30 09:00:55;;;;;;;12.93;5.30;;;17.60;99.90;;;;;;5058932;28;21348;-72
2023/06/30 09:03:21;;;;;;;13.70;6.40;;;17.50;99.90;;;;;;5039470;28;20432;-72
2023/06/30 09:05:49;;;;;;;13.87;6.20;;;17.50;99.90;;;;;;5049884;28;20507;-72
2023/06/30 09:08:31;;;;;;;15.60;5.67;;;17.50;99.90;;;;;;5057760;28;20467;-72
2023/06/30 09:10:58;;;;;;;15.83;7.40;;;17.50;99.90;;;;;;5041330;28;20461;-72
2023/06/30 09:13:24;;;;;;;22.27;7.90;;;17.40;99.90;;;;;;5041967;28;20424;-72
2023/06/30 09:15:53;;;;;;;12.00;6.60;;;17.50;99.90;;;;;;5054138;28;20419;-72
2023/06/30 09:18:19;;;;;;;10.43;5.90;;;17.50;99.90;;;;;;5061239;28;20622;-73
2023/06/30 09:20:45;;;;;;;11.03;5.60;;;17.50;99.90;;;;;;5070268;28;20943;-73
2023/06/30 09:23:11;;;;;;;7.33;4.07;;;17.50;99.90;;;;;;5050614;28;20184;-72
2023/06/30 09:25:39;;;;;;;14.50;5.83;;;17.60;99.90;;;;;;5054777;28;20641;-72
2023/06/30 09:28:13;;;;;;;6.90;3.57;;;17.70;99.90;;;;;;5072544;28;20469;-72
2023/06/30 09:30:45;;;;;;;7.53;4.83;;;17.70;99.90;;;;;;5051291;28;20432;-72
2023/06/30 09:33:13;;;;;;;11.47;4.20;;;17.70;99.90;;;;;;5049109;28;20413;-72
2023/06/30 09:35:40;;;;;;;7.83;3.77;;;17.70;99.90;;;;;;5046637;28;20411;-72
2023/06/30 09:38:28;;;;;;;18.73;5.07;;;17.70;99.90;;;;;;5071136;28;20415;-72
2023/06/30 09:40:53;;;;;;;5.97;3.37;;;17.80;99.90;;;;;;5071735;28;20422;-71
2023/06/30 09:43:23;;;;;;;6.67;3.63;;;17.90;99.90;;;;;;5040540;28;20412;-72
2023/06/30 09:45:57;;;;;;;7.67;4.33;;;17.90;99.90;;;;;;5051701;28;20262;-72
2023/06/30 09:48:29;;;;;;;5.73;3.20;;;18.00;99.90;;;;;;5069288;28;20955;-72
2023/06/30 09:50:55;;;;;;;12.30;5.00;;;18.20;99.90;;;;;;5071173;28;20868;-72
2023/06/30 09:53:21;;;;;;;11.43;5.20;;;18.30;99.90;;;;;;5071098;28;20415;-72
2023/06/30 09:55:50;;;;;;;7.10;4.47;;;18.30;99.90;;;;;;5071812;28;20473;-72
2023/06/30 09:58:18;;;;;;;10.60;5.27;;;18.30;99.90;;;;;;5059937;28;20182;-72
2023/06/30 10:00:45;;;;;;;12.53;5.40;;;18.20;99.90;;;;;;5043977;28;20417;-73
2023/06/30 10:03:11;;;;;;;12.30;5.90;;;18.20;99.90;;;;;;5039138;28;20416;-73
2023/06/30 10:05:38;;;;;;;9.93;5.10;;;18.20;99.90;;;;;;5051477;28;20495;-73
2023/06/30 10:08:04;;;;;;;11.10;5.83;;;18.10;99.90;;;;;;5053818;28;20466;-72
2023/06/30 10:10:31;;;;;;;12.43;5.03;;;18.10;99.90;;;;;;5065103;28;20514;-73
2023/06/30 10:13:00;;;;;;;9.10;5.67;;;18.10;99.90;;;;;;5057477;28;20496;-73
2023/06/30 10:15:26;;;;;;;10.33;5.07;;;18.10;99.90;;;;;;5057625;28;20773;-73
2023/06/30 10:17:57;;;;;;;10.77;5.80;;;18.10;99.90;;;;;;5051705;28;20855;-73
2023/06/30 10:20:24;;;;;;;13.87;5.33;;;18.20;99.90;;;;;;5063580;28;20444;-73
2023/06/30 10:22:51;;;;;;;11.90;6.07;;;18.20;99.90;;;;;;5040108;28;20419;-73
2023/06/30 10:25:20;;;;;;;11.47;5.97;;;18.30;99.90;;;;;;5065446;28;20423;-74
2023/06/30 10:27:47;;;;;;;12.83;6.83;;;18.20;99.90;;;;;;5063380;28;20451;-73
2023/06/30 10:30:14;;;;;;;14.50;7.37;;;18.30;99.90;;;;;;5059049;28;20424;-73
2023/06/30 10:32:39;;;;;;;15.03;6.93;;;18.40;99.90;;;;;;5050504;28;20420;-73
2023/06/30 10:35:08;;;;;;;13.03;7.30;;;18.40;99.90;;;;;;5065972;28;20411;-73
2023/06/30 10:37:34;;;;;;;9.70;6.07;;;18.40;99.90;;;;;;5054313;28;20178;-73
2023/06/30 10:40:00;;;;;;;15.20;6.40;;;18.50;99.90;;;;;;5058171;28;20423;-74
2023/06/30 10:42:26;;;;;;;9.73;5.63;;;18.60;99.90;;;;;;5046832;28;20422;-74
2023/06/30 10:44:58;;;;;;;14.57;7.13;;;18.70;99.90;;;;;;5069781;28;20605;-74
2023/06/30 10:47:27;;;;;;;19.60;7.17;;;18.70;99.90;;;;;;5061788;28;20766;-74
2023/06/30 10:49:54;;;;;;;15.20;7.70;;;18.80;99.90;;;;;;5067158;28;20437;-74
2023/06/30 10:52:27;;;;;;;15.97;6.87;;;18.90;99.90;;;;;;5065102;28;20416;-74
2023/06/30 10:54:53;;;;;;;10.53;6.57;;;19.00;99.90;;;;;;5071510;28;20418;-74
2023/06/30 10:57:20;;;;;;;12.53;6.30;;;19.00;99.90;;;;;;5074377;28;20415;-74
2023/06/30 10:59:47;;;;;;;13.27;6.17;;;19.00;99.90;;;;;;5054015;28;20598;-74
2023/06/30 11:02:19;;;;;;;11.67;6.63;;;19.10;99.90;;;;;;5054717;28;20507;-74
2023/06/30 11:04:45;;;;;;;16.20;7.53;;;19.30;99.90;;;;;;5068300;28;20891;-74
2023/06/30 11:07:29;;;;;;;15.23;6.33;;;19.40;99.90;;;;;;5040097;28;20447;-74
2023/06/30 11:09:59;;;;;;;10.67;5.97;;;19.50;99.90;;;;;;5057870;28;20433;-75
2023/06/30 11:12:45;;;;;;;14.33;7.00;;;19.60;99.90;;;;;;5071410;28;20424;-75
2023/06/30 11:15:47;;;;;;;18.90;7.43;;;19.70;99.90;;;;;;5054569;28;20424;-75
2023/06/30 11:18:14;;;;;;;14.60;6.73;;;19.80;99.90;;;;;;5050078;28;20427;-74
2023/06/30 11:21:06;;;;;;;17.57;8.20;;;20.00;99.90;;;;;;5067197;28;20420;-75
2023/06/30 11:23:39;;;;;;;16.40;8.10;;;19.90;99.90;;;;;;5067863;28;20435;-75
2023/06/30 11:26:13;;;;;;;14.07;7.40;;;19.80;99.90;;;;;;5062533;28;20423;-74
2023/06/30 11:28:40;;;;;;;15.40;7.43;;;19.70;99.90;;;;;;5060805;28;20602;-74
2023/06/30 11:31:06;;;;;;;12.97;7.43;;;19.80;99.90;;;;;;5060276;28;20413;-75
2023/06/30 11:33:33;;;;;;;13.47;6.90;;;19.80;99.90;;;;;;5064009;28;20771;-75
2023/06/30 11:35:59;;;;;;;16.00;8.63;;;19.70;99.90;;;;;;5074285;28;20564;-75
2023/06/30 11:38:25;;;;;;;14.80;8.10;;;19.60;99.90;;;;;;5054789;28;20475;-75
2023/06/30 11:40:51;;;;;;;16.20;7.43;;;19.60;99.90;;;;;;5053448;28;20517;-75
2023/06/30 11:43:21;;;;;;;20.33;8.73;;;19.70;99.90;;;;;;5058959;28;20507;-75
2023/06/30 11:45:58;;;;;;;18.33;8.63;;;19.80;99.90;;;;;;5043611;28;20649;-75
2023/06/30 11:48:23;;;;;;;18.67;8.50;;;19.90;99.90;;;;;;5071053;28;20447;-75
2023/06/30 11:50:49;;;;;;;13.47;8.10;;;19.90;99.90;;;;;;5073693;28;20862;-75
2023/06/30 11:53:15;;;;;;;19.87;8.80;;;20.00;99.90;;;;;;5074203;28;20633;-75
2023/06/30 11:55:44;;;;;;;21.77;8.40;;;19.90;99.90;;;;;;5062645;28;20176;-75
2023/06/30 11:58:09;;;;;;;18.90;8.33;;;20.00;99.90;;;;;;5072646;28;20181;-75
2023/06/30 12:00:35;;;;;;;19.40;7.83;;;20.00;99.90;;;;;;5073067;28;20417;-75
2023/06/30 12:03:01;;;;;;;19.43;8.17;;;20.20;99.90;;;;;;5067943;28;20177;-75
2023/06/30 12:05:27;;;;;;;16.67;8.67;;;20.20;99.90;;;;;;5065341;28;20207;-75
2023/06/30 12:07:56;;;;;;;24.13;8.33;;;20.30;99.90;;;;;;5072846;28;21034;-75
2023/06/30 12:10:34;;;;;;;16.93;8.03;;;20.20;99.90;;;;;;5067991;28;20500;-75
2023/06/30 12:13:00;;;;;;;16.43;7.93;;;20.20;99.90;;;;;;5073767;28;20409;-75
2023/06/30 12:15:29;;;;;;;24.03;9.57;;;20.30;99.90;;;;;;5073347;28;20419;-75
2023/06/30 12:17:55;;;;;;;14.67;7.90;;;20.40;99.90;;;;;;5066976;28;20205;-75
2023/06/30 12:20:29;;;;;;;20.67;8.37;;;20.40;99.90;;;;;;5040800;28;20735;-74
2023/06/30 12:22:57;;;;;;;19.03;7.50;;;20.60;99.90;;;;;;5045302;28;20188;-74
2023/06/30 12:25:26;;;;;;;18.43;8.43;;;20.80;99.90;;;;;;5052260;28;20413;-74
2023/06/30 12:27:54;;;;;;;14.43;7.77;;;20.80;99.90;;;;;;5074079;28;20530;-74
2023/06/30 12:30:20;;;;;;;20.40;9.50;;;20.80;99.90;;;;;;5072004;28;20892;-74
2023/06/30 12:32:46;;;;;;;19.17;8.53;;;20.80;99.90;;;;;;5059761;28;20782;-75
2023/06/30 12:35:13;;;;;;;16.30;8.97;;;20.90;99.90;;;;;;5042584;28;20423;-74
2023/06/30 12:37:39;;;;;;;21.70;9.37;;;20.90;99.90;;;;;;5062808;28;20182;-74
2023/06/30 12:40:08;;;;;;;26.30;10.13;;;20.90;99.90;;;;;;5065965;28;20431;-75
2023/06/30 12:42:34;;;;;;;24.57;9.27;;;21.10;99.90;;;;;;5041400;28;20424;-74
2023/06/30 12:44:59;;;;;;;21.07;9.57;;;21.10;99.90;;;;;;5052000;28;20415;-74
2023/06/30 12:47:25;;;;;;;16.67;8.70;;;21.00;99.90;;;;;;5045766;28;20638;-74
2023/06/30 12:49:51;;;;;;;23.70;9.43;;;21.00;99.90;;;;;;5050588;28;20180;-74
2023/06/30 12:52:16;;;;;;;17.20;8.50;;;21.00;99.90;;;;;;5057489;28;20221;-74
2023/06/30 12:54:42;;;;;;;23.63;9.40;;;21.00;99.90;;;;;;5054747;28;20231;-74
2023/06/30 12:57:08;;;;;;;18.60;8.50;;;21.10;99.90;;;;;;5056402;28;20183;-75
2023/06/30 12:59:34;;;;;;;22.70;10.93;;;21.30;99.90;;;;;;5067701;28;20919;-75
2023/06/30 13:02:00;;;;;;;20.17;10.00;;;21.20;99.90;;;;;;5071960;28;20177;-75
2023/06/30 13:04:26;;;;;;;21.67;9.20;;;21.20;99.90;;;;;;5057497;28;20236;-75
2023/06/30 13:06:51;;;;;;;17.87;9.90;;;21.30;99.90;;;;;;5060043;28;20420;-74
2023/06/30 13:09:18;;;;;;;17.17;9.57;;;21.30;99.90;;;;;;5062596;28;20295;-74
2023/06/30 13:11:44;;;;;;;21.20;9.67;;;21.50;99.90;;;;;;5061690;28;20626;-74
2023/06/30 13:14:09;;;;;;;28.90;10.70;;;21.70;99.90;;;;;;5057133;28;20465;-74
2023/06/30 13:16:36;;;;;;;17.33;8.77;;;21.80;99.90;;;;;;5061900;28;20252;-74
2023/06/30 13:19:02;;;;;;;19.37;9.60;;;22.00;99.90;;;;;;5054573;28;20211;-74
2023/06/30 13:21:28;;;;;;;19.13;9.23;;;22.50;99.90;;;;;;5052349;28;20504;-74